Time;durP1;ratioP1;P1;durP2;ratioP2;P2;SDS_P1;SDS_P2;PMS_P1;PMS_P2;Temp;Humidity;BMP_temperature;BMP_pressure;BME280_temperature;BME280_humidity;BME280_pressure;Samples;Min_cycle;Max_cycle;Signal;HPM_P1;HPM_P2
2024/02/17 14:09:31;;;;;;;21.98;15.32;;;;;;;;;;4976724;23;20130;-88
2024/02/17 14:11:57;;;;;;;39.33;26.52;;;;;;;;;;4975944;28;20133;-88
2024/02/17 14:14:22;;;;;;;37.70;24.35;;;;;;;;;;4976920;28;20466;-90
2024/02/17 14:16:48;;;;;;;33.25;24.00;;;;;;;;;;4977366;28;20031;-90
2024/02/17 14:19:13;;;;;;;44.20;29.27;;;;;;;;;;4958952;28;20031;-89
2024/02/17 14:21:39;;;;;;;43.83;28.80;;;;;;;;;;4943038;28;20033;-90
2024/02/17 14:24:05;;;;;;;36.45;24.75;;;;;;;;;;4976616;28;20469;-93
2024/02/17 14:26:31;;;;;;;31.33;21.10;;;;;;;;;;4976218;28;20030;-89
2024/02/17 14:28:57;;;;;;;29.35;18.73;;;;;;;;;;4976219;28;20106;-91
2024/02/17 14:31:24;;;;;;;26.23;17.65;;;;;;;;;;4959376;28;20489;-89
2024/02/17 14:33:50;;;;;;;26.13;18.38;;;;;;;;;;4958867;28;20477;-93
2024/02/17 14:36:16;;;;;;;21.63;14.60;;;;;;;;;;4959060;28;20477;-89
2024/02/17 14:38:42;;;;;;;15.68;10.80;;;;;;;;;;4958902;28;20038;-90
2024/02/17 14:41:07;;;;;;;18.70;11.15;;;;;;;;;;4959106;28;20121;-88
2024/02/17 14:43:34;;;;;;;18.50;12.60;;;;;;;;;;4958577;28;20441;-91
2024/02/17 14:46:01;;;;;;;14.98;10.10;;;;;;;;;;4976013;28;20031;-89
2024/02/17 14:48:26;;;;;;;16.95;11.07;;;;;;;;;;4959376;28;20481;-94
2024/02/17 14:50:52;;;;;;;17.38;11.30;;;;;;;;;;4959093;28;20023;-89
2024/02/17 14:53:17;;;;;;;18.02;11.50;;;;;;;;;;4959280;28;20039;-89
2024/02/17 14:55:43;;;;;;;14.70;10.32;;;;;;;;;;4975895;28;20031;-89
2024/02/17 14:58:08;;;;;;;14.07;10.30;;;;;;;;;;4958828;28;20030;-89
2024/02/17 15:00:34;;;;;;;17.80;11.77;;;;;;;;;;4976322;28;20027;-89
2024/02/17 15:02:59;;;;;;;18.15;12.77;;;;;;;;;;4959150;28;20027;-89
2024/02/17 15:05:25;;;;;;;17.15;11.25;;;;;;;;;;4958633;28;20389;-91
2024/02/17 15:07:51;;;;;;;18.33;12.73;;;;;;;;;;4960866;28;20061;-91
2024/02/17 15:10:16;;;;;;;16.75;11.95;;;;;;;;;;4977234;28;20023;-89
2024/02/17 15:12:42;;;;;;;23.73;14.48;;;;;;;;;;4970768;28;20050;-90
2024/02/17 15:15:08;;;;;;;25.35;15.43;;;;;;;;;;4975514;28;20035;-93
2024/02/17 15:17:33;;;;;;;21.42;14.20;;;;;;;;;;4966762;28;20027;-88
2024/02/17 15:19:59;;;;;;;22.73;14.77;;;;;;;;;;4973773;28;20019;-90
2024/02/17 15:22:24;;;;;;;21.80;14.15;;;;;;;;;;4973992;28;20035;-90
2024/02/17 15:24:50;;;;;;;24.35;15.88;;;;;;;;;;4969760;28;20027;-91
2024/02/17 15:27:17;;;;;;;23.77;15.43;;;;;;;;;;4974579;28;20474;-88
2024/02/17 15:29:43;;;;;;;23.08;13.52;;;;;;;;;;4968990;28;20025;-91
2024/02/17 15:32:08;;;;;;;19.70;11.77;;;;;;;;;;4974603;28;20027;-90
2024/02/17 15:34:35;;;;;;;20.75;12.07;;;;;;;;;;4967179;28;20145;-87
2024/02/17 15:37:01;;;;;;;23.27;14.50;;;;;;;;;;4975542;28;20031;-93
2024/02/17 15:39:28;;;;;;;49.65;33.17;;;;;;;;;;4974379;28;20041;-91
2024/02/17 15:41:54;;;;;;;26.17;19.33;;;;;;;;;;4975609;28;20466;-91
2024/02/17 15:44:19;;;;;;;28.65;16.38;;;;;;;;;;4976273;28;20079;-92
2024/02/17 15:46:45;;;;;;;25.85;17.00;;;;;;;;;;4969092;28;20038;-92
2024/02/17 15:49:10;;;;;;;26.08;16.88;;;;;;;;;;4975291;28;20473;-91
2024/02/17 15:51:36;;;;;;;26.77;18.20;;;;;;;;;;4967587;28;20430;-91
2024/02/17 15:54:01;;;;;;;29.13;19.67;;;;;;;;;;4975672;28;20027;-91
2024/02/17 15:56:27;;;;;;;33.70;19.83;;;;;;;;;;4974134;28;20041;-92
2024/02/17 15:58:53;;;;;;;28.42;18.42;;;;;;;;;;4969948;28;20030;-91
2024/02/17 16:01:19;;;;;;;29.23;18.15;;;;;;;;;;4975505;28;20385;-90
2024/02/17 16:03:45;;;;;;;28.45;19.98;;;;;;;;;;4968366;28;20030;-91
2024/02/17 16:06:11;;;;;;;29.65;19.52;;;;;;;;;;4974042;28;20050;-91
2024/02/17 16:08:38;;;;;;;26.08;17.88;;;;;;;;;;4967469;28;20493;-90
2024/02/17 16:11:04;;;;;;;24.42;14.35;;;;;;;;;;4974867;28;20394;-92
2024/02/17 16:13:30;;;;;;;23.67;13.52;;;;;;;;;;4975572;28;20058;-92
2024/02/17 16:15:56;;;;;;;17.13;11.88;;;;;;;;;;4975550;28;20035;-90
2024/02/17 16:18:29;;;;;;;19.80;12.75;;;;;;;;;;4975335;28;20082;-91
2024/02/17 16:20:55;;;;;;;17.35;11.20;;;;;;;;;;4975568;28;20046;-91
2024/02/17 16:23:21;;;;;;;21.40;12.90;;;;;;;;;;4973713;28;20031;-91
2024/02/17 16:25:53;;;;;;;20.77;13.20;;;;;;;;;;4975116;28;20030;-92
2024/02/17 16:28:19;;;;;;;22.88;14.20;;;;;;;;;;4973360;28;20035;-91
2024/02/17 16:30:45;;;;;;;25.52;15.55;;;;;;;;;;4968478;28;20074;-89
2024/02/17 16:33:11;;;;;;;18.35;11.10;;;;;;;;;;4976529;28;20027;-92
2024/02/17 16:35:36;;;;;;;18.40;10.88;;;;;;;;;;4970723;28;20366;-91
2024/02/17 16:38:02;;;;;;;19.52;11.88;;;;;;;;;;4979359;28;20054;-91
2024/02/17 16:40:28;;;;;;;19.55;12.05;;;;;;;;;;4979107;28;20037;-92
2024/02/17 16:42:53;;;;;;;15.40;10.52;;;;;;;;;;4979127;28;20143;-92
2024/02/17 16:45:19;;;;;;;19.45;12.43;;;;;;;;;;4976449;28;20382;-91
2024/02/17 16:47:45;;;;;;;15.80;10.95;;;;;;;;;;4971516;28;20126;-89
2024/02/17 16:50:10;;;;;;;20.30;11.13;;;;;;;;;;4977430;28;20034;-92
2024/02/17 16:52:36;;;;;;;24.88;14.88;;;;;;;;;;4978404;28;20050;-93
2024/02/17 16:55:02;;;;;;;24.85;15.27;;;;;;;;;;4978372;28;20034;-92
2024/02/17 16:57:28;;;;;;;27.25;15.38;;;;;;;;;;4969392;28;20031;-88
2024/02/17 16:59:54;;;;;;;29.00;16.35;;;;;;;;;;4977233;28;20082;-94
2024/02/17 17:02:19;;;;;;;61.22;29.75;;;;;;;;;;4976923;28;20506;-91
2024/02/17 17:04:45;;;;;;;177.80;60.10;;;;;;;;;;4977960;28;20101;-90
2024/02/17 17:07:10;;;;;;;67.03;29.33;;;;;;;;;;4974961;28;20029;-90
2024/02/17 17:09:39;;;;;;;23.13;13.13;;;;;;;;;;4978416;28;19921;-90
2024/02/17 17:12:06;;;;;;;20.48;12.02;;;;;;;;;;4977985;28;20027;-91
2024/02/17 17:14:33;;;;;;;21.42;11.85;;;;;;;;;;4977882;28;20023;-92
2024/02/17 17:16:59;;;;;;;23.05;12.48;;;;;;;;;;4994497;23;20047;-95
2024/02/17 17:19:25;;;;;;;19.33;12.25;;;;;;;;;;4995401;28;20034;-94
2024/02/17 17:21:51;;;;;;;23.00;13.40;;;;;;;;;;4999564;28;20019;-90
2024/02/17 17:24:17;;;;;;;19.30;11.80;;;;;;;;;;4980893;28;20022;-90
2024/02/17 17:26:47;;;;;;;22.80;13.98;;;;;;;;;;5017064;28;20029;-96
2024/02/17 17:29:36;;;;;;;22.45;13.50;;;;;;;;;;5022759;28;20046;-90
2024/02/17 17:32:06;;;;;;;20.50;12.52;;;;;;;;;;5020743;28;20029;-89
2024/02/17 17:34:33;;;;;;;23.67;11.20;;;;;;;;;;5007267;28;20380;-90
2024/02/17 17:36:58;;;;;;;20.15;10.93;;;;;;;;;;5023690;28;20034;-89
2024/02/17 17:39:24;;;;;;;20.70;11.38;;;;;;;;;;5021299;28;20036;-92
2024/02/17 17:41:50;;;;;;;17.52;11.65;;;;;;;;;;5000512;28;20022;-90
2024/02/17 22:04:38;;;;;;;;;;;;;;;;;;4976124;28;19922;-91
2024/02/17 22:07:03;;;;;;;;;;;;;;;;;;4963553;28;19922;-95
2024/02/17 22:09:28;;;;;;;;;;;;;;;;;;4963228;28;19922;-87
2024/02/17 22:11:54;;;;;;;;;;;;;;;;;;4978170;28;19980;-92
2024/02/17 22:14:28;;;;;;;;;;;;;;;;;;4995430;28;19905;-86
2024/02/17 22:16:53;;;;;;;;;;;;;;;;;;4970941;28;19926;-90
2024/02/17 22:19:19;;;;;;;;;;;;;;;;;;4956176;28;20021;-92
2024/02/17 22:21:44;;;;;;;;;;;;;;;;;;4967334;29;19918;-90
2024/02/17 22:24:11;;;;;;;;;;;;;;;;;;4951347;29;19945;-92
2024/02/17 22:26:39;;;;;;;;;;;;;;;;;;4957607;28;19918;-95
2024/02/17 22:29:06;;;;;;;;;;;;;;;;;;4960290;28;19918;-94
2024/02/17 22:31:34;;;;;;;;;;;;;;;;;;4961550;28;19969;-94
2024/02/17 22:34:00;;;;;;;;;;;;;;;;;;4960246;28;19918;-91
2024/02/17 22:36:25;;;;;;;;;;;;;;;;;;4976647;28;19918;-92
2024/02/17 22:38:50;;;;;;;;;;;;;;;;;;4960548;28;19919;-91
2024/02/17 22:41:16;;;;;;;;;;;;;;;;;;4960293;28;19977;-91
2024/02/17 22:43:41;;;;;;;;;;;;;;;;;;4960561;28;19918;-94
2024/02/17 22:46:06;;;;;;;;;;;;;;;;;;4960207;28;19925;-95
2024/02/17 22:48:31;;;;;;;;;;;;;;;;;;4961186;28;19918;-91
2024/02/17 22:50:57;;;;;;;;;;;;;;;;;;4961914;28;19918;-94
2024/02/17 22:53:22;;;;;;;;;;;;;;;;;;4964076;28;19922;-92
2024/02/17 22:55:47;;;;;;;;;;;;;;;;;;4964538;28;19918;-93
2024/02/17 22:58:13;;;;;;;;;;;;;;;;;;4964725;28;19918;-90
2024/02/17 23:00:38;;;;;;;;;;;;;;;;;;4981288;28;19918;-90
2024/02/17 23:03:04;;;;;;;;;;;;;;;;;;4977686;28;19964;-91
2024/02/17 23:05:29;;;;;;;;;;;;;;;;;;4959847;28;20399;-89
